Time;durP1;ratioP1;P1;durP2;ratioP2;P2;SDS_P1;SDS_P2;PMS_P1;PMS_P2;Temp;Humidity;BMP_temperature;BMP_pressure;BME280_temperature;BME280_humidity;BME280_pressure;Samples;Min_cycle;Max_cycle;Signal;HPM_P1;HPM_P2
2023/09/28 00:02:54;;;;;;;9.32;8.15;;;21.70;99.90;;;;;;5089146;28;20048;-80
2023/09/28 00:05:20;;;;;;;11.15;8.73;;;21.80;99.90;;;;;;5090991;28;20036;-79
2023/09/28 00:07:47;;;;;;;10.98;8.75;;;21.80;99.90;;;;;;5093426;28;20067;-78
2023/09/28 00:10:17;;;;;;;9.75;8.30;;;21.80;99.90;;;;;;5074669;28;20043;-79
2023/09/28 00:12:46;;;;;;;8.00;7.22;;;21.80;99.90;;;;;;5075792;28;20092;-80
2023/09/28 00:15:12;;;;;;;10.70;8.23;;;21.90;99.90;;;;;;5073703;28;20404;-79
2023/09/28 00:17:38;;;;;;;9.13;8.23;;;21.90;99.90;;;;;;5086393;28;20122;-80
2023/09/28 00:20:17;;;;;;;9.98;7.82;;;21.90;99.90;;;;;;5066867;28;20044;-80
2023/09/28 00:22:48;;;;;;;9.63;7.57;;;21.90;99.90;;;;;;5080102;28;20067;-80
2023/09/28 00:25:16;;;;;;;10.38;7.82;;;21.90;99.90;;;;;;5106109;28;20043;-82
2023/09/28 00:27:47;;;;;;;8.70;7.90;;;21.90;99.90;;;;;;5087988;28;20447;-80
2023/09/28 00:30:22;;;;;;;8.02;7.22;;;21.90;99.90;;;;;;5096597;28;20063;-80
2023/09/28 00:32:51;;;;;;;;;;;21.90;99.90;;;;;;5086324;28;20039;-81
2023/09/28 00:35:17;;;;;;;8.32;7.03;;;21.90;99.90;;;;;;5079753;28;19920;-80
2023/09/28 00:37:44;;;;;;;8.63;7.82;;;21.90;99.90;;;;;;5078492;28;20062;-80
2023/09/28 00:42:47;;;;;;;12.20;7.90;;;21.90;99.90;;;;;;5096684;28;20624;-80
2023/09/28 00:45:13;;;;;;;8.23;7.38;;;21.90;99.90;;;;;;5085811;28;20123;-79
2023/09/28 00:47:39;;;;;;;7.80;7.10;;;21.90;99.90;;;;;;5085139;28;20122;-78
2023/09/28 00:50:10;;;;;;;8.65;7.45;;;21.90;99.90;;;;;;5112152;28;20376;-81
2023/09/28 00:52:41;;;;;;;9.02;8.23;;;21.90;99.90;;;;;;5079499;28;20040;-81
2023/09/28 00:55:08;;;;;;;10.07;7.93;;;21.90;99.90;;;;;;5096074;28;20047;-80
2023/09/28 00:57:38;;;;;;;7.82;7.03;;;21.90;99.90;;;;;;5065867;28;20039;-79
2023/09/28 01:00:18;;;;;;;8.68;7.80;;;21.90;99.90;;;;;;5089252;28;20044;-79
2023/09/28 01:02:46;;;;;;;8.32;7.53;;;21.90;99.90;;;;;;5083252;28;20040;-81
2023/09/28 01:05:13;;;;;;;8.38;7.47;;;21.90;99.90;;;;;;5083764;28;20051;-81
2023/09/28 01:07:39;;;;;;;8.43;7.50;;;21.80;99.90;;;;;;5079287;28;20047;-79
2023/09/28 01:10:09;;;;;;;9.05;8.18;;;21.80;99.90;;;;;;5070934;28;20486;-80
2023/09/28 01:12:38;;;;;;;7.85;7.13;;;21.70;99.90;;;;;;5089676;28;20047;-78
2023/09/28 01:15:09;;;;;;;8.07;7.13;;;21.70;99.90;;;;;;5108092;28;20055;-81
2023/09/28 01:17:36;;;;;;;8.32;7.57;;;21.70;99.90;;;;;;5087912;28;20047;-79
2023/09/28 01:20:34;;;;;;;9.07;7.40;;;21.60;99.90;;;;;;5080392;28;20473;-80
2023/09/28 01:22:50;;;;;;;8.48;7.38;;;21.60;99.90;;;;;;5094131;28;20051;-79
2023/09/28 01:25:18;;;;;;;8.40;7.60;;;21.60;99.90;;;;;;5065153;28;20047;-80
2023/09/28 01:27:48;;;;;;;7.55;6.82;;;21.60;99.90;;;;;;5106753;28;20039;-79
2023/09/28 01:30:14;;;;;;;7.70;7.00;;;21.60;99.90;;;;;;5088910;28;20153;-80
2023/09/28 01:32:42;;;;;;;7.57;6.78;;;21.60;99.90;;;;;;5079290;28;20106;-81
2023/09/28 01:35:08;;;;;;;7.95;7.15;;;21.60;99.90;;;;;;5079135;28;20063;-81
2023/09/28 01:37:52;;;;;;;8.52;7.25;;;21.60;99.90;;;;;;5085419;28;20043;-80
2023/09/28 01:40:18;;;;;;;9.80;6.97;;;21.60;99.90;;;;;;5078163;28;20040;-79
2023/09/28 01:42:44;;;;;;;7.47;6.60;;;21.60;99.90;;;;;;5094774;28;20078;-80
2023/09/28 01:45:11;;;;;;;6.82;6.15;;;21.70;99.90;;;;;;5082515;28;20075;-80
2023/09/28 01:47:37;;;;;;;6.93;6.22;;;21.60;99.90;;;;;;5079153;28;20039;-78
2023/09/28 01:50:03;;;;;;;7.20;6.50;;;21.70;99.90;;;;;;5064850;28;20050;-80
2023/09/28 01:52:29;;;;;;;7.57;6.88;;;21.70;99.90;;;;;;5078444;28;20043;-79
2023/09/28 01:54:55;;;;;;;7.40;6.68;;;21.60;99.90;;;;;;5058344;28;20081;-79
2023/09/28 01:57:21;;;;;;;8.32;6.78;;;21.60;99.90;;;;;;5081684;28;20048;-80
2023/09/28 01:59:47;;;;;;;8.50;6.90;;;21.60;99.90;;;;;;5073977;28;20043;-77
2023/09/28 02:02:15;;;;;;;9.50;6.68;;;21.60;99.90;;;;;;5059736;28;20048;-79
2023/09/28 02:04:41;;;;;;;7.22;6.53;;;21.50;99.90;;;;;;5076024;28;20056;-79
2023/09/28 02:07:06;;;;;;;7.18;6.40;;;21.60;99.90;;;;;;5075232;28;20036;-78
2023/09/28 02:09:32;;;;;;;8.00;6.30;;;21.50;99.90;;;;;;5081314;28;20036;-80
2023/09/28 02:11:58;;;;;;;7.20;6.50;;;21.50;99.90;;;;;;5096851;28;20368;-80
2023/09/28 02:14:24;;;;;;;9.80;6.22;;;21.50;99.90;;;;;;5083133;28;22231;-80
2023/09/28 02:16:50;;;;;;;6.35;5.72;;;21.50;99.90;;;;;;5099019;28;20036;-79
2023/09/28 02:19:16;;;;;;;6.50;5.82;;;21.50;99.90;;;;;;5097983;28;20031;-79
2023/09/28 02:21:43;;;;;;;6.72;6.03;;;21.50;99.90;;;;;;5072311;28;20472;-79
2023/09/28 02:24:09;;;;;;;6.72;5.75;;;21.40;99.90;;;;;;5080312;28;20044;-79
2023/09/28 02:26:35;;;;;;;6.43;5.80;;;21.50;99.90;;;;;;5045026;28;20387;-80
2023/09/28 02:29:02;;;;;;;6.28;5.55;;;21.50;99.90;;;;;;5092491;28;20040;-80
2023/09/28 02:31:28;;;;;;;6.97;5.80;;;21.50;99.90;;;;;;5083544;28;20039;-79
2023/09/28 02:33:54;;;;;;;5.93;5.30;;;21.50;99.90;;;;;;5067985;28;20044;-79
2023/09/28 02:36:20;;;;;;;7.15;5.55;;;21.50;99.90;;;;;;5082386;28;20066;-81
2023/09/28 02:38:47;;;;;;;6.07;5.18;;;21.50;99.90;;;;;;5061184;28;20052;-80
2023/09/28 02:41:19;;;;;;;5.97;5.40;;;21.60;99.90;;;;;;5097610;28;20047;-80
2023/09/28 02:43:45;;;;;;;6.95;5.68;;;21.60;99.90;;;;;;5076221;28;20067;-81
2023/09/28 02:46:12;;;;;;;7.20;5.90;;;21.50;99.90;;;;;;5087545;28;20082;-80
2023/09/28 02:48:38;;;;;;;5.85;5.35;;;21.50;99.90;;;;;;5068664;28;20504;-78
2023/09/28 02:51:04;;;;;;;6.18;5.57;;;21.40;99.90;;;;;;5093157;28;20040;-80
2023/09/28 02:53:30;;;;;;;6.35;5.60;;;21.40;99.90;;;;;;5092911;28;20112;-80
2023/09/28 02:55:56;;;;;;;6.75;5.50;;;21.40;99.90;;;;;;5078087;28;20043;-79
2023/09/28 02:58:24;;;;;;;6.07;5.47;;;21.30;99.90;;;;;;5079094;28;20578;-79
2023/09/28 03:00:53;;;;;;;6.05;5.45;;;21.30;99.90;;;;;;5075332;28;20594;-79
2023/09/28 03:03:19;;;;;;;6.22;5.38;;;21.30;99.90;;;;;;5086433;28;20043;-80
2023/09/28 03:05:45;;;;;;;8.45;5.60;;;21.30;99.90;;;;;;5075195;28;20036;-81
2023/09/28 03:08:14;;;;;;;7.45;6.18;;;21.30;99.90;;;;;;5066354;28;20061;-80
2023/09/28 03:10:41;;;;;;;6.30;5.68;;;21.30;99.90;;;;;;5088588;28;20036;-80
2023/09/28 03:13:06;;;;;;;6.38;5.78;;;21.30;99.90;;;;;;5039464;28;20032;-79
2023/09/28 03:15:33;;;;;;;8.73;6.53;;;21.30;99.90;;;;;;5075345;28;20440;-81
2023/09/28 03:17:59;;;;;;;7.13;6.07;;;21.30;99.90;;;;;;5058588;28;20040;-79
2023/09/28 03:20:34;;;;;;;6.75;5.95;;;21.20;99.90;;;;;;5074435;28;20047;-78
2023/09/28 03:23:00;;;;;;;7.75;5.70;;;21.20;99.90;;;;;;5059842;28;20036;-78
2023/09/28 03:25:26;;;;;;;7.90;5.63;;;21.20;99.90;;;;;;5074271;28;20050;-80
2023/09/28 03:27:53;;;;;;;6.97;5.88;;;21.20;99.90;;;;;;5075235;28;20112;-80
2023/09/28 03:30:20;;;;;;;6.72;6.10;;;21.10;99.90;;;;;;5073494;28;20115;-79
2023/09/28 03:32:47;;;;;;;9.32;5.88;;;21.10;99.90;;;;;;5087997;28;20048;-78
2023/09/28 03:35:14;;;;;;;7.80;6.32;;;21.10;99.90;;;;;;5088091;28;20068;-78
2023/09/28 03:37:41;;;;;;;7.57;6.32;;;21.10;99.90;;;;;;5072479;28;20130;-79
2023/09/28 03:40:11;;;;;;;7.45;6.03;;;21.00;99.90;;;;;;5077960;28;20059;-79
2023/09/28 03:42:38;;;;;;;7.15;6.32;;;21.00;99.90;;;;;;5046234;28;20040;-80
2023/09/28 03:45:04;;;;;;;7.57;5.93;;;21.00;99.90;;;;;;5091626;28;20046;-80
2023/09/28 03:47:33;;;;;;;7.57;6.32;;;21.00;99.90;;;;;;5072819;28;20407;-79
2023/09/28 03:49:59;;;;;;;8.57;6.80;;;21.00;99.90;;;;;;5061529;28;20032;-80
2023/09/28 03:52:25;;;;;;;8.25;6.20;;;20.90;99.90;;;;;;5073295;28;20032;-81
2023/09/28 03:54:50;;;;;;;7.13;6.43;;;20.90;99.90;;;;;;5040984;28;20341;-79
2023/09/28 03:57:17;;;;;;;7.97;7.10;;;20.80;99.90;;;;;;5079758;28;20040;-78
2023/09/28 03:59:42;;;;;;;9.05;6.32;;;20.80;99.90;;;;;;5069220;28;20043;-81
2023/09/28 04:02:08;;;;;;;8.20;6.90;;;20.70;99.90;;;;;;5038452;28;20040;-80
2023/09/28 04:04:34;;;;;;;8.88;6.93;;;20.80;99.90;;;;;;5055519;28;20040;-79
2023/09/28 04:07:00;;;;;;;9.23;7.03;;;20.70;99.90;;;;;;5065044;28;20039;-79
2023/09/28 04:09:25;;;;;;;10.18;7.20;;;20.60;99.90;;;;;;5062588;28;20054;-79
2023/09/28 04:11:51;;;;;;;7.38;6.68;;;20.70;99.90;;;;;;5066160;28;20040;-80
2023/09/28 04:14:17;;;;;;;7.25;6.55;;;20.60;99.90;;;;;;5074647;28;20042;-79
2023/09/28 04:16:42;;;;;;;8.25;7.25;;;20.60;99.90;;;;;;5094711;28;20039;-80
2023/09/28 04:19:08;;;;;;;8.50;6.97;;;20.50;99.90;;;;;;5061510;28;20093;-78
2023/09/28 04:21:34;;;;;;;8.65;7.57;;;20.50;99.90;;;;;;5068303;28;20127;-80
2023/09/28 04:24:00;;;;;;;9.85;7.45;;;20.50;99.90;;;;;;5057768;28;20043;-81
2023/09/28 04:26:25;;;;;;;9.35;7.18;;;20.50;99.90;;;;;;5062831;28;20043;-80
2023/09/28 04:28:52;;;;;;;8.18;7.00;;;20.50;99.90;;;;;;5077696;28;20463;-79
2023/09/28 04:31:18;;;;;;;11.52;7.70;;;20.50;99.90;;;;;;5060743;28;20047;-81
2023/09/28 04:33:44;;;;;;;9.10;7.28;;;20.50;99.90;;;;;;5101540;28;20061;-79
2023/09/28 04:36:10;;;;;;;7.72;6.93;;;20.50;99.90;;;;;;5086663;28;20052;-78
2023/09/28 04:38:36;;;;;;;9.65;7.47;;;20.40;99.90;;;;;;5060021;28;20044;-78
2023/09/28 04:41:02;;;;;;;7.72;6.97;;;20.40;99.90;;;;;;5056709;28;20690;-79
2023/09/28 04:43:29;;;;;;;8.65;7.20;;;20.40;99.90;;;;;;5089283;28;20096;-79
2023/09/28 04:45:54;;;;;;;8.38;7.45;;;20.50;99.90;;;;;;5092557;28;20074;-79
2023/09/28 04:48:20;;;;;;;8.35;7.50;;;20.50;99.90;;;;;;5075655;28;20071;-79
2023/09/28 04:50:46;;;;;;;10.40;7.38;;;20.40;99.90;;;;;;5093518;28;20031;-78
2023/09/28 04:53:12;;;;;;;9.57;8.50;;;20.40;99.90;;;;;;5075540;28;20039;-77
2023/09/28 04:55:38;;;;;;;10.27;8.77;;;20.40;99.90;;;;;;5076596;28;20048;-77
2023/09/28 04:58:04;;;;;;;9.18;8.20;;;20.30;99.90;;;;;;5073863;28;20043;-78
2023/09/28 05:00:30;;;;;;;10.80;8.95;;;20.30;99.90;;;;;;5089763;28;20040;-79
2023/09/28 05:02:56;;;;;;;10.50;8.57;;;20.30;99.90;;;;;;5072497;28;20090;-79
2023/09/28 05:05:22;;;;;;;10.02;8.18;;;20.30;99.90;;;;;;5057138;28;20036;-80
2023/09/28 05:07:48;;;;;;;11.05;8.55;;;20.30;99.90;;;;;;5043286;28;20502;-79
2023/09/28 05:10:14;;;;;;;12.07;8.93;;;20.20;99.90;;;;;;5055082;28;20123;-77
2023/09/28 05:12:39;;;;;;;12.45;9.05;;;20.20;99.90;;;;;;5077481;28;20047;-77
2023/09/28 05:15:06;;;;;;;11.98;9.27;;;20.20;99.90;;;;;;5111678;28;20058;-78
2023/09/28 05:17:31;;;;;;;10.52;9.27;;;20.20;99.90;;;;;;5078267;28;20036;-76
2023/09/28 05:19:58;;;;;;;10.70;9.13;;;20.20;99.90;;;;;;5055650;28;20498;-77
2023/09/28 05:22:23;;;;;;;10.60;8.48;;;20.20;99.90;;;;;;5060905;28;20050;-76
2023/09/28 05:24:49;;;;;;;10.82;8.60;;;20.20;99.90;;;;;;5065832;28;20032;-77
2023/09/28 05:27:15;;;;;;;9.55;7.07;;;20.20;99.90;;;;;;5066411;28;20043;-77
2023/09/28 05:29:41;;;;;;;12.45;7.60;;;20.20;99.90;;;;;;5083431;28;20027;-77
2023/09/28 05:32:08;;;;;;;9.93;7.60;;;20.10;99.90;;;;;;5100018;28;20040;-77
2023/09/28 05:34:34;;;;;;;10.05;6.95;;;20.20;99.90;;;;;;5087543;28;20028;-80
2023/09/28 05:36:59;;;;;;;8.38;7.13;;;20.10;99.90;;;;;;5101611;28;20055;-77
2023/09/28 05:39:25;;;;;;;10.18;7.18;;;20.00;99.90;;;;;;5071926;28;20040;-80
2023/09/28 05:41:54;;;;;;;9.85;6.75;;;20.00;99.90;;;;;;5097867;28;20044;-76
2023/09/28 05:44:19;;;;;;;9.65;7.88;;;20.00;99.90;;;;;;5071122;28;20069;-76
2023/09/28 05:46:46;;;;;;;10.73;6.78;;;19.90;99.90;;;;;;5076427;28;20413;-78
2023/09/28 05:49:13;;;;;;;10.18;7.93;;;19.80;99.90;;;;;;5068195;28;20460;-77
2023/09/28 05:51:38;;;;;;;10.95;8.13;;;19.90;99.90;;;;;;5103798;28;20059;-77
2023/09/28 05:54:04;;;;;;;11.10;8.93;;;19.90;99.90;;;;;;5092296;28;20076;-80
2023/09/28 05:56:30;;;;;;;10.68;8.27;;;20.00;99.90;;;;;;5086172;28;20551;-77
2023/09/28 05:58:56;;;;;;;9.88;7.82;;;20.00;99.90;;;;;;5068687;28;20409;-77
2023/09/28 06:01:22;;;;;;;13.93;9.23;;;20.00;99.90;;;;;;5078817;28;20158;-76
2023/09/28 06:03:48;;;;;;;10.85;7.85;;;20.00;99.90;;;;;;5104607;28;20046;-78
2023/09/28 06:06:19;;;;;;;14.25;9.15;;;20.00;99.90;;;;;;5104742;28;20040;-75
2023/09/28 06:08:48;;;;;;;13.85;8.73;;;20.00;99.90;;;;;;5099319;28;20043;-77
2023/09/28 06:11:15;;;;;;;10.35;8.27;;;20.10;99.90;;;;;;5081832;28;20138;-77
2023/09/28 06:13:41;;;;;;;9.65;8.20;;;20.00;99.90;;;;;;5059229;28;20032;-77
2023/09/28 06:16:09;;;;;;;9.75;8.23;;;19.90;99.90;;;;;;5106757;28;20492;-78
2023/09/28 06:18:36;;;;;;;9.52;7.70;;;20.00;99.90;;;;;;5103568;28;20040;-79
2023/09/28 06:21:02;;;;;;;8.05;7.05;;;20.00;99.90;;;;;;5098293;28;20048;-80
2023/09/28 06:23:28;;;;;;;8.90;7.50;;;20.10;99.90;;;;;;5076300;28;20048;-69
2023/09/28 06:25:54;;;;;;;10.00;7.90;;;20.20;99.90;;;;;;5099516;28;20040;-80
2023/09/28 06:28:21;;;;;;;13.82;7.43;;;20.20;99.90;;;;;;5087671;28;20110;-81
2023/09/28 06:30:47;;;;;;;12.70;7.50;;;20.10;99.90;;;;;;5106132;28;20038;-79
2023/09/28 06:33:13;;;;;;;9.82;6.32;;;20.20;99.90;;;;;;5102657;28;20043;-77
2023/09/28 06:35:39;;;;;;;12.13;7.35;;;20.30;99.90;;;;;;5098522;28;20106;-80
2023/09/28 06:38:05;;;;;;;9.38;7.25;;;20.20;99.90;;;;;;5060730;28;20468;-80
2023/09/28 06:40:31;;;;;;;11.80;7.03;;;20.30;99.90;;;;;;5084402;28;20039;-77
2023/09/28 06:42:57;;;;;;;11.23;6.15;;;20.40;99.90;;;;;;5087133;28;20040;-79
2023/09/28 06:45:22;;;;;;;10.93;6.28;;;20.40;99.90;;;;;;5104662;28;20036;-77
2023/09/28 06:47:48;;;;;;;9.43;5.53;;;20.30;99.90;;;;;;5085667;28;20116;-79
2023/09/28 06:50:14;;;;;;;13.68;5.50;;;20.40;99.90;;;;;;5085635;28;20373;-77
2023/09/28 06:52:40;;;;;;;10.98;5.80;;;20.40;99.90;;;;;;5056512;28;20070;-77
2023/09/28 06:55:07;;;;;;;10.48;5.43;;;20.50;99.90;;;;;;5077593;28;20043;-77
2023/09/28 06:57:33;;;;;;;10.05;5.03;;;20.50;99.90;;;;;;5047755;28;20077;-78
2023/09/28 07:00:01;;;;;;;12.45;5.15;;;20.60;99.90;;;;;;5062791;28;20032;-79
2023/09/28 07:02:26;;;;;;;13.93;4.65;;;20.60;99.90;;;;;;5080847;28;20731;-77
2023/09/28 07:04:52;;;;;;;10.77;4.90;;;20.70;99.90;;;;;;5069301;28;20036;-80
2023/09/28 07:07:18;;;;;;;13.38;4.20;;;20.80;99.90;;;;;;5072197;28;20832;-79
2023/09/28 07:09:44;;;;;;;12.73;4.35;;;20.90;99.90;;;;;;5081566;28;20517;-80
2023/09/28 07:12:10;;;;;;;12.10;4.65;;;21.00;99.90;;;;;;5087472;28;20044;-79
2023/09/28 07:14:36;;;;;;;13.02;3.75;;;21.00;99.90;;;;;;5100429;28;20062;-80
2023/09/28 07:17:03;;;;;;;13.48;4.43;;;21.10;99.90;;;;;;5042681;28;20399;-80
2023/09/28 07:19:29;;;;;;;11.98;4.47;;;21.20;99.90;;;;;;5082021;28;20053;-80
2023/09/28 07:21:54;;;;;;;12.43;3.85;;;21.30;99.90;;;;;;5099569;28;20039;-79
2023/09/28 07:24:21;;;;;;;11.55;3.90;;;21.30;99.90;;;;;;5100983;28;20366;-81
2023/09/28 07:26:46;;;;;;;21.33;5.97;;;21.40;99.90;;;;;;5072287;28;21797;-78
2023/09/28 07:29:12;;;;;;;12.40;4.35;;;21.40;99.90;;;;;;5045415;28;20040;-81
2023/09/28 07:31:38;;;;;;;19.40;3.90;;;21.50;99.90;;;;;;5062685;28;20087;-79
2023/09/28 07:34:05;;;;;;;13.45;3.97;;;21.60;99.90;;;;;;5082370;28;20058;-77
2023/09/28 07:36:31;;;;;;;11.10;3.88;;;21.60;99.90;;;;;;5084931;28;20056;-81
2023/09/28 07:38:57;;;;;;;10.50;3.70;;;21.60;99.90;;;;;;5082136;28;20043;-79
2023/09/28 07:41:23;;;;;;;15.27;3.75;;;21.60;99.90;;;;;;5074791;28;20043;-79
2023/09/28 07:43:49;;;;;;;12.13;3.72;;;21.70;99.90;;;;;;5060283;28;20376;-79
2023/09/28 07:46:15;;;;;;;16.05;3.80;;;21.80;99.90;;;;;;5065204;28;20102;-81
2023/09/28 07:48:40;;;;;;;12.10;3.70;;;21.90;99.90;;;;;;5077795;28;20092;-80
2023/09/28 07:51:06;;;;;;;13.82;4.00;;;22.00;99.90;;;;;;5086785;28;20392;-80
2023/09/28 07:53:32;;;;;;;16.88;4.43;;;22.10;99.90;;;;;;5088657;28;20040;-79
2023/09/28 07:55:58;;;;;;;12.23;3.78;;;22.10;99.90;;;;;;5100719;28;20715;-79
2023/09/28 07:58:23;;;;;;;14.88;3.55;;;22.10;99.90;;;;;;5108415;28;20058;-79
2023/09/28 08:00:49;;;;;;;13.73;4.10;;;22.10;99.90;;;;;;5074955;28;20066;-78
2023/09/28 08:03:15;;;;;;;16.17;4.00;;;22.20;99.90;;;;;;5087804;28;20048;-74
2023/09/28 08:05:41;;;;;;;12.48;3.10;;;22.20;99.90;;;;;;5100091;28;20035;-76
2023/09/28 08:08:07;;;;;;;15.13;3.75;;;22.20;99.90;;;;;;5098295;28;20036;-73
2023/09/28 08:10:33;;;;;;;15.38;3.80;;;22.30;99.90;;;;;;5095685;28;20081;-74
2023/09/28 08:13:00;;;;;;;11.55;3.30;;;22.30;99.90;;;;;;5082570;28;20028;-78
2023/09/28 08:15:25;;;;;;;12.02;3.78;;;22.40;99.90;;;;;;5099369;28;20057;-77
2023/09/28 08:17:51;;;;;;;12.43;3.13;;;22.40;99.90;;;;;;5095555;28;20504;-74
2023/09/28 08:20:17;;;;;;;13.52;4.53;;;22.50;99.90;;;;;;5088655;28;20077;-73
2023/09/28 08:22:43;;;;;;;12.00;3.15;;;22.40;99.90;;;;;;5089154;28;20055;-74
2023/09/28 08:25:09;;;;;;;13.50;3.33;;;22.40;99.90;;;;;;5094698;28;20410;-78
2023/09/28 08:27:35;;;;;;;17.33;4.07;;;22.60;99.90;;;;;;5072149;28;20036;-76
2023/09/28 08:30:02;;;;;;;12.23;3.63;;;22.60;99.90;;;;;;5088480;28;20040;-76
2023/09/28 08:32:28;;;;;;;12.75;3.13;;;22.70;99.90;;;;;;5088334;28;20056;-75
2023/09/28 08:34:54;;;;;;;12.65;3.70;;;22.80;99.90;;;;;;5080066;28;20480;-75
2023/09/28 08:37:20;;;;;;;16.88;3.42;;;22.90;99.90;;;;;;5107071;28;20058;-78
2023/09/28 08:39:46;;;;;;;15.57;4.75;;;23.00;99.90;;;;;;5096701;28;20679;-76
2023/09/28 08:42:15;;;;;;;22.00;3.53;;;23.20;99.90;;;;;;5076558;28;20036;-77
2023/09/28 08:44:41;;;;;;;16.02;3.72;;;23.20;99.90;;;;;;5088126;28;20377;-78
2023/09/28 08:47:18;;;;;;;16.17;3.88;;;23.40;99.90;;;;;;5104969;28;20043;-78
2023/09/28 08:49:49;;;;;;;17.08;4.22;;;23.50;99.90;;;;;;5071360;28;20154;-76
2023/09/28 08:52:17;;;;;;;14.57;4.30;;;23.40;99.90;;;;;;5088919;28;20032;-75
2023/09/28 08:54:43;;;;;;;19.05;4.28;;;23.40;99.90;;;;;;5088318;28;20097;-77
2023/09/28 08:57:10;;;;;;;14.55;3.60;;;23.50;99.90;;;;;;5102055;28;20048;-74
2023/09/28 08:59:38;;;;;;;13.27;3.53;;;23.40;99.90;;;;;;5108845;28;20127;-74
2023/09/28 09:02:05;;;;;;;13.52;4.00;;;23.50;99.90;;;;;;5089580;28;20091;-76
2023/09/28 09:04:38;;;;;;;15.05;3.55;;;23.60;99.90;;;;;;5083028;28;20044;-78
2023/09/28 09:07:04;;;;;;;13.18;4.32;;;23.60;99.90;;;;;;5074370;28;20460;-78
2023/09/28 09:09:39;;;;;;;19.17;4.30;;;23.70;99.90;;;;;;5075484;28;20039;-78
2023/09/28 09:12:09;;;;;;;12.85;4.07;;;23.50;99.90;;;;;;5075598;28;20028;-76
2023/09/28 09:14:35;;;;;;;19.67;4.18;;;23.60;99.90;;;;;;5092689;28;20378;-78
2023/09/28 09:17:01;;;;;;;22.70;4.57;;;23.60;99.90;;;;;;5092982;28;20036;-77
2023/09/28 09:19:31;;;;;;;20.73;4.80;;;23.60;99.90;;;;;;5092309;28;20044;-76
2023/09/28 09:21:57;;;;;;;19.90;4.22;;;23.70;99.90;;;;;;5075164;28;20068;-78
2023/09/28 09:24:23;;;;;;;17.35;4.32;;;23.80;99.90;;;;;;5059367;28;20396;-80
2023/09/28 09:26:52;;;;;;;19.33;5.18;;;23.80;99.90;;;;;;5083320;28;20032;-77
2023/09/28 09:29:19;;;;;;;18.45;4.30;;;23.60;99.90;;;;;;5076594;28;20392;-75
2023/09/28 09:31:47;;;;;;;18.75;4.30;;;23.50;99.90;;;;;;5074877;28;20047;-76
2023/09/28 09:34:18;;;;;;;14.40;4.75;;;23.60;99.90;;;;;;5102983;28;20051;-77
2023/09/28 09:36:58;;;;;;;14.82;3.80;;;23.50;99.90;;;;;;5093336;28;20126;-78
2023/09/28 09:39:26;;;;;;;15.77;4.32;;;23.40;99.90;;;;;;5090831;28;20047;-76
2023/09/28 09:41:53;;;;;;;15.32;4.45;;;23.40;99.90;;;;;;5090337;28;20439;-77
2023/09/28 09:44:24;;;;;;;20.15;4.53;;;23.40;99.90;;;;;;5091576;28;20048;-77
2023/09/28 09:46:52;;;;;;;15.25;4.05;;;23.40;99.90;;;;;;5109463;28;20080;-74
2023/09/28 09:49:19;;;;;;;19.23;4.60;;;23.30;99.90;;;;;;5093664;28;20061;-75
2023/09/28 09:51:46;;;;;;;15.48;4.85;;;23.40;99.90;;;;;;5095880;28;20039;-75
2023/09/28 09:54:17;;;;;;;18.80;5.32;;;23.20;99.90;;;;;;5096123;28;20651;-77
2023/09/28 09:56:48;;;;;;;19.02;5.63;;;23.20;99.90;;;;;;5079481;28;20062;-75
2023/09/28 09:59:16;;;;;;;20.75;5.57;;;23.30;99.90;;;;;;5110860;28;20043;-76
2023/09/28 10:01:48;;;;;;;21.73;5.10;;;23.40;99.90;;;;;;5098600;28;20588;-78
2023/09/28 10:04:16;;;;;;;18.73;4.97;;;23.40;99.90;;;;;;5096178;28;20494;-77
2023/09/28 10:06:54;;;;;;;22.10;5.95;;;23.40;99.90;;;;;;5057224;28;20127;-78
2023/09/28 10:09:21;;;;;;;16.63;4.43;;;23.30;99.90;;;;;;5081590;28;20040;-77
2023/09/28 10:11:49;;;;;;;17.35;4.13;;;23.20;99.90;;;;;;5105201;28;20463;-76
2023/09/28 10:14:18;;;;;;;18.35;4.05;;;23.20;99.90;;;;;;5108128;28;20036;-80
2023/09/28 10:16:44;;;;;;;16.10;3.88;;;23.10;99.90;;;;;;5075756;28;20044;-75
2023/09/28 10:19:15;;;;;;;18.42;4.45;;;23.10;99.90;;;;;;5111390;28;20039;-76
2023/09/28 10:21:41;;;;;;;19.80;4.43;;;23.00;99.90;;;;;;5089313;28;20166;-77
2023/09/28 10:24:11;;;;;;;19.23;4.80;;;23.00;99.90;;;;;;5080906;28;20071;-78
2023/09/28 10:26:40;;;;;;;21.48;3.88;;;23.10;99.90;;;;;;5066392;28;20508;-76
2023/09/28 10:29:08;;;;;;;17.08;3.92;;;23.10;99.90;;;;;;5107958;28;20035;-78
2023/09/28 10:31:41;;;;;;;13.48;3.30;;;23.20;99.90;;;;;;5108205;28;20082;-79
2023/09/28 10:34:09;;;;;;;16.98;3.55;;;23.40;99.90;;;;;;5088375;28;20107;-76
2023/09/28 10:36:39;;;;;;;15.65;3.53;;;23.40;99.90;;;;;;5086170;28;20062;-76
2023/09/28 10:39:15;;;;;;;15.73;4.22;;;23.40;99.90;;;;;;5090620;28;20089;-76
2023/09/28 10:41:52;;;;;;;14.40;3.60;;;23.50;99.90;;;;;;5095719;28;20086;-79
2023/09/28 10:44:19;;;;;;;21.45;4.43;;;23.60;99.90;;;;;;5106321;28;20511;-80
2023/09/28 10:46:50;;;;;;;12.68;3.60;;;23.50;99.90;;;;;;5073393;28;20065;-80
2023/09/28 10:49:23;;;;;;;13.45;3.33;;;23.40;99.90;;;;;;5090526;28;20044;-76
2023/09/28 10:51:49;;;;;;;14.10;3.28;;;23.30;99.90;;;;;;5062873;28;20085;-76
2023/09/28 10:54:15;;;;;;;12.10;3.30;;;23.20;99.90;;;;;;5107133;28;20036;-77
2023/09/28 10:56:41;;;;;;;15.52;3.42;;;23.30;99.90;;;;;;5095624;28;20074;-75
2023/09/28 10:59:07;;;;;;;12.68;3.25;;;23.20;99.90;;;;;;5073127;28;20051;-79
2023/09/28 11:01:42;;;;;;;15.60;3.33;;;23.30;99.90;;;;;;5090271;28;20063;-76
2023/09/28 11:04:08;;;;;;;16.20;3.75;;;23.20;99.90;;;;;;5103284;28;20115;-77
2023/09/28 11:06:35;;;;;;;10.35;2.90;;;23.20;99.90;;;;;;5073397;28;20123;-76
2023/09/28 11:09:05;;;;;;;16.85;4.65;;;23.30;99.90;;;;;;5094828;28;20715;-79
2023/09/28 11:11:31;;;;;;;15.88;3.72;;;23.20;99.90;;;;;;5108027;28;20416;-76
2023/09/28 11:14:00;;;;;;;9.70;3.00;;;23.30;99.90;;;;;;5101474;28;20126;-76
2023/09/28 11:16:27;;;;;;;16.45;3.25;;;23.40;99.90;;;;;;5102105;28;20480;-77
2023/09/28 11:18:56;;;;;;;10.77;3.80;;;23.30;99.90;;;;;;5089704;28;20043;-78
2023/09/28 11:21:22;;;;;;;18.52;4.13;;;23.30;99.90;;;;;;5073451;28;20067;-78
2023/09/28 11:23:51;;;;;;;15.45;3.50;;;23.20;99.90;;;;;;5097729;28;20042;-76
2023/09/28 11:26:17;;;;;;;20.02;4.38;;;23.20;99.90;;;;;;5109966;28;20077;-76
2023/09/28 11:28:44;;;;;;;16.27;3.72;;;23.20;99.90;;;;;;5110129;28;20123;-76
2023/09/28 11:31:14;;;;;;;14.65;3.88;;;23.10;99.90;;;;;;5096135;28;20050;-77
2023/09/28 11:33:42;;;;;;;17.25;4.30;;;23.10;99.90;;;;;;5090898;28;20093;-77
2023/09/28 11:36:28;;;;;;;14.35;3.67;;;23.20;99.90;;;;;;5093931;28;20048;-77
2023/09/28 11:38:55;;;;;;;16.42;3.90;;;23.20;99.90;;;;;;5093429;28;20105;-77
2023/09/28 11:41:24;;;;;;;16.20;3.95;;;23.20;99.90;;;;;;5071461;28;20550;-78
2023/09/28 11:43:56;;;;;;;17.92;3.92;;;23.10;99.90;;;;;;5057721;28;20043;-78
2023/09/28 11:46:31;;;;;;;15.95;3.80;;;23.20;99.90;;;;;;5073712;28;20075;-80
2023/09/28 11:49:08;;;;;;;16.58;3.55;;;23.30;99.90;;;;;;5087583;28;20031;-79
2023/09/28 11:51:35;;;;;;;11.18;3.22;;;23.20;99.90;;;;;;5081532;28;20035;-76
2023/09/28 11:54:01;;;;;;;12.30;3.30;;;23.20;99.90;;;;;;5091205;28;20078;-79
2023/09/28 11:56:28;;;;;;;14.88;3.33;;;23.30;99.90;;;;;;5085896;28;20071;-77
2023/09/28 11:58:53;;;;;;;16.65;3.72;;;23.20;99.90;;;;;;5065413;28;20045;-77
2023/09/28 12:01:19;;;;;;;13.57;3.35;;;23.30;99.90;;;;;;5092312;28;20040;-77
2023/09/28 12:03:47;;;;;;;16.58;4.38;;;23.30;99.90;;;;;;5064438;28;20093;-76
2023/09/28 12:06:14;;;;;;;14.13;3.42;;;23.50;99.90;;;;;;5068341;28;20047;-74
2023/09/28 12:08:40;;;;;;;12.85;3.47;;;23.50;99.90;;;;;;5065338;28;20484;-77
2023/09/28 12:11:05;;;;;;;19.02;3.75;;;23.60;99.90;;;;;;5093769;28;20032;-77
2023/09/28 12:13:31;;;;;;;13.52;4.10;;;23.60;99.90;;;;;;5072340;28;20104;-77
2023/09/28 12:15:57;;;;;;;17.92;3.85;;;23.70;99.90;;;;;;5076483;28;20122;-76
2023/09/28 12:18:23;;;;;;;11.57;3.42;;;23.80;99.90;;;;;;5086869;28;20059;-78
2023/09/28 12:20:48;;;;;;;14.25;3.50;;;23.80;99.90;;;;;;5063286;28;20055;-77
2023/09/28 12:23:14;;;;;;;14.40;3.80;;;23.80;99.90;;;;;;5093363;28;20118;-78
2023/09/28 12:25:40;;;;;;;14.35;4.00;;;23.80;99.90;;;;;;5064456;28;20044;-79
2023/09/28 12:28:07;;;;;;;13.63;2.97;;;23.80;99.90;;;;;;5051223;28;20477;-79
2023/09/28 12:30:33;;;;;;;20.50;3.88;;;23.80;99.90;;;;;;5077503;28;20392;-76
2023/09/28 12:32:59;;;;;;;15.57;4.20;;;23.70;99.90;;;;;;5070881;28;20058;-76
2023/09/28 12:35:26;;;;;;;12.77;3.72;;;23.70;99.90;;;;;;5093417;28;20055;-77
2023/09/28 12:37:53;;;;;;;16.65;3.55;;;23.50;99.90;;;;;;5106862;28;20093;-77
2023/09/28 12:40:19;;;;;;;12.30;3.22;;;23.40;99.90;;;;;;5057497;28;20055;-79
2023/09/28 12:42:45;;;;;;;12.02;3.20;;;23.30;99.90;;;;;;5091032;28;20085;-78
2023/09/28 12:45:11;;;;;;;14.88;3.80;;;23.20;99.90;;;;;;5076912;28;20032;-77